createdAt,value
2023-05-19T04:00:30.669Z,66.27
2023-05-19T04:01:31.353Z,66.37
2023-05-19T04:02:31.399Z,66.27
2023-05-19T04:03:31.380Z,66.37
2023-05-19T04:04:31.425Z,66.27
2023-05-19T04:05:31.297Z,66.27
2023-05-19T04:06:31.338Z,66.27
2023-05-19T04:07:31.317Z,66.27
2023-05-19T04:08:31.276Z,66.24
2023-05-19T04:09:31.269Z,66.27
2023-05-19T04:10:31.493Z,66.24
2023-05-19T04:11:31.269Z,66.27
2023-05-19T04:12:31.232Z,66.44
2023-05-19T04:13:31.223Z,66.24
2023-05-19T04:14:31.203Z,66.24
2023-05-19T04:15:31.217Z,66.24
2023-05-19T04:16:31.314Z,66.44
2023-05-19T04:17:31.204Z,66.13
2023-05-19T04:18:31.169Z,66.24
2023-05-19T04:19:31.181Z,66.24
2023-05-19T04:20:31.479Z,66.13
2023-05-19T04:21:31.131Z,66.24
2023-05-19T04:22:31.157Z,66.34
2023-05-19T04:23:31.110Z,66.31
2023-05-19T04:24:31.090Z,66.20
2023-05-19T04:25:31.120Z,66.31
2023-05-19T04:26:31.211Z,66.51
2023-05-19T04:27:31.066Z,66.31
2023-05-19T04:28:31.045Z,66.20
2023-05-19T04:29:31.040Z,66.20
2023-05-19T04:30:31.202Z,66.41
2023-05-19T04:31:31.042Z,66.10
2023-05-19T04:32:31.035Z,66.10
2023-05-19T04:33:31.023Z,66.31
2023-05-19T04:34:31.011Z,66.51
2023-05-19T04:35:31.017Z,66.82
2023-05-19T04:36:30.962Z,66.61
2023-05-19T04:37:30.961Z,66.51
2023-05-19T04:38:30.940Z,66.38
2023-05-19T04:39:31.004Z,66.58
2023-05-19T04:41:30.916Z,66.28
2023-05-19T04:42:30.900Z,66.48
2023-05-19T04:43:30.883Z,66.38
2023-05-19T04:44:30.854Z,66.28
2023-05-19T04:45:30.909Z,66.28
2023-05-19T04:46:30.885Z,66.28
2023-05-19T04:47:30.908Z,65.97
2023-05-19T04:48:30.851Z,65.84
2023-05-19T04:49:30.837Z,65.73
2023-05-19T04:50:31.063Z,65.84
2023-05-19T04:51:30.853Z,65.94
2023-05-19T04:52:30.898Z,65.63
2023-05-19T04:53:30.763Z,65.94
2023-05-19T04:54:30.795Z,65.73
2023-05-19T04:55:30.774Z,65.53
2023-05-19T04:56:30.744Z,65.53
2023-05-19T04:57:30.773Z,65.43
2023-05-19T04:58:30.712Z,65.33
2023-05-19T04:59:30.724Z,65.73
2023-05-19T05:00:31.028Z,66.04
2023-05-19T05:01:30.692Z,65.63
2023-05-19T05:02:30.750Z,65.53
2023-05-19T05:03:30.771Z,65.33
2023-05-19T05:04:30.658Z,65.40
2023-05-19T05:05:30.644Z,65.50
2023-05-19T05:06:30.663Z,65.40
2023-05-19T05:07:32.363Z,65.09
2023-05-19T05:08:30.597Z,64.99
2023-05-19T05:09:30.607Z,65.09
2023-05-19T05:10:30.928Z,65.19
2023-05-19T05:11:30.583Z,64.99
2023-05-19T05:12:30.560Z,65.09
2023-05-19T05:13:30.584Z,64.89
2023-05-19T05:14:30.624Z,64.89
2023-05-19T05:15:30.555Z,64.89
2023-05-19T05:16:30.587Z,64.78
2023-05-19T05:17:30.551Z,64.99
2023-05-19T05:18:30.479Z,64.68
2023-05-19T05:19:30.607Z,64.78
2023-05-19T05:20:30.624Z,64.99
2023-05-19T05:21:30.475Z,65.09
2023-05-19T05:22:30.460Z,64.99
2023-05-19T05:23:30.446Z,64.99
2023-05-19T05:24:30.442Z,64.86
2023-05-19T05:25:30.544Z,64.86
2023-05-19T05:26:30.417Z,64.96
2023-05-19T05:27:30.431Z,65.09
2023-05-19T05:28:30.407Z,65.06
2023-05-19T05:29:30.403Z,64.96
2023-05-19T05:30:30.373Z,65.09
2023-05-19T05:31:30.382Z,65.06
2023-05-19T05:32:30.419Z,64.96
2023-05-19T05:33:30.368Z,65.06
2023-05-19T05:34:30.404Z,64.96
2023-05-19T05:35:30.460Z,64.86
2023-05-19T05:36:30.289Z,64.96
2023-05-19T05:37:30.525Z,64.86
2023-05-19T05:38:30.400Z,64.86
2023-05-19T05:39:30.254Z,64.96
2023-05-19T05:40:30.289Z,65.26
2023-05-19T05:41:30.254Z,65.37
2023-05-19T05:42:30.256Z,65.37
2023-05-19T05:43:30.240Z,65.47
2023-05-19T05:44:30.214Z,65.37
2023-05-19T05:45:30.468Z,65.26
2023-05-19T05:46:30.266Z,64.96
2023-05-19T05:47:30.293Z,64.96
2023-05-19T05:48:30.194Z,64.83
2023-05-19T05:49:30.172Z,65.03
2023-05-19T05:50:30.168Z,64.83
2023-05-19T05:51:30.163Z,65.13
2023-05-19T05:52:30.134Z,65.13
2023-05-19T05:53:30.133Z,64.83
2023-05-19T05:54:30.246Z,64.69
2023-05-19T05:55:30.335Z,64.49
2023-05-19T05:56:30.177Z,64.08
2023-05-19T05:57:30.143Z,64.18
2023-05-19T05:58:30.136Z,63.78
2023-05-19T05:59:30.052Z,63.47
2023-05-19T06:00:30.173Z,63.67
2023-05-19T06:01:30.042Z,63.78
2023-05-19T06:02:30.209Z,63.75
2023-05-19T06:03:30.051Z,63.64
2023-05-19T06:04:30.033Z,63.44
2023-05-19T06:05:30.266Z,63.31
2023-05-19T06:06:29.984Z,62.90
2023-05-19T06:07:29.972Z,62.49
2023-05-19T06:08:29.969Z,62.49
2023-05-19T06:09:29.960Z,62.36
2023-05-19T06:10:29.981Z,62.66
2023-05-19T06:11:30.070Z,62.26
2023-05-19T06:12:29.929Z,61.95
2023-05-19T06:13:29.931Z,62.16
2023-05-19T06:14:30.314Z,62.02
2023-05-19T06:15:29.984Z,61.65
2023-05-19T06:16:29.942Z,61.95
2023-05-19T06:17:29.963Z,62.16
2023-05-19T06:18:29.847Z,62.46
2023-05-19T06:19:29.858Z,62.77
2023-05-19T06:20:29.921Z,62.56
2023-05-19T06:21:29.847Z,62.36
2023-05-19T06:22:29.959Z,62.26
2023-05-19T06:23:29.768Z,62.56
2023-05-19T06:24:29.761Z,62.90
2023-05-19T06:25:29.758Z,62.87
2023-05-19T06:26:29.738Z,62.87
2023-05-19T06:27:29.856Z,62.43
2023-05-19T06:28:29.717Z,62.30
2023-05-19T06:29:29.786Z,61.59
2023-05-19T06:30:29.775Z,60.98
2023-05-19T06:31:29.743Z,60.85
2023-05-19T06:32:29.729Z,61.05
2023-05-19T06:33:29.665Z,60.82
2023-05-19T06:34:29.686Z,60.21
2023-05-19T06:35:29.650Z,60.38
2023-05-19T06:36:29.655Z,59.47
2023-05-19T06:37:29.632Z,59.57
2023-05-19T06:38:29.634Z,59.47
2023-05-19T06:39:29.623Z,59.67
2023-05-19T06:40:29.701Z,59.37
2023-05-19T06:41:29.668Z,59.57
2023-05-19T06:42:29.675Z,59.98
2023-05-19T06:43:29.595Z,59.95
2023-05-19T06:44:29.564Z,59.11
2023-05-19T06:45:29.624Z,58.47
2023-05-19T06:46:29.626Z,58.06
2023-05-19T06:47:29.579Z,57.43
2023-05-19T06:48:29.559Z,56.52
2023-05-19T06:49:29.527Z,57.12
2023-05-19T06:50:29.553Z,56.70
2023-05-19T06:51:29.493Z,56.46
2023-05-19T06:52:29.465Z,55.22
2023-05-19T06:53:29.468Z,55.70
2023-05-19T06:54:29.421Z,55.68
2023-05-19T06:55:29.426Z,54.23
2023-05-19T06:56:29.462Z,53.30
2023-05-19T06:57:29.413Z,53.60
2023-05-19T06:58:30.040Z,52.39
2023-05-19T06:59:29.493Z,53.52
2023-05-19T07:00:29.448Z,53.85
2023-05-19T07:01:29.367Z,54.59
2023-05-19T07:02:29.449Z,54.69
2023-05-19T07:03:29.406Z,54.99
2023-05-19T07:04:29.326Z,55.27
2023-05-19T07:05:29.386Z,53.96
2023-05-19T07:06:29.392Z,54.13
2023-05-19T07:07:29.269Z,53.83
2023-05-19T07:08:29.295Z,52.89
2023-05-19T07:09:29.282Z,52.59
2023-05-19T07:10:29.273Z,52.48
2023-05-19T07:11:29.244Z,52.89
2023-05-19T07:12:29.268Z,53.19
2023-05-19T07:13:29.210Z,52.16
2023-05-19T07:14:29.235Z,51.73
2023-05-19T07:15:29.204Z,50.70
2023-05-19T07:16:29.242Z,51.00
2023-05-19T07:17:29.263Z,52.54
2023-05-19T07:18:29.172Z,51.81
2023-05-19T07:19:29.221Z,50.37
2023-05-19T07:20:29.156Z,50.04
2023-05-19T07:21:29.245Z,49.94
2023-05-19T07:22:29.206Z,50.16
2023-05-19T07:23:29.280Z,51.68
2023-05-19T07:24:29.133Z,50.67
2023-05-19T07:25:29.114Z,50.55
2023-05-19T07:26:29.116Z,51.15
2023-05-19T07:27:29.287Z,49.99
2023-05-19T07:28:29.083Z,49.07
2023-05-19T07:29:29.037Z,49.04
2023-05-19T07:30:29.126Z,47.20
2023-05-19T07:31:29.358Z,46.93
2023-05-19T07:32:29.109Z,47.23
2023-05-19T07:33:29.023Z,47.00
2023-05-19T07:34:29.013Z,47.78
2023-05-19T07:35:29.102Z,48.16
2023-05-19T07:36:29.010Z,48.46
2023-05-19T07:37:28.979Z,47.83
2023-05-19T07:38:29.058Z,47.74
2023-05-19T07:39:28.925Z,47.43
2023-05-19T07:40:28.956Z,48.54
2023-05-19T07:41:28.942Z,47.00
2023-05-19T07:42:28.921Z,47.31
2023-05-19T07:43:28.953Z,46.20
2023-05-19T07:44:28.925Z,46.91
2023-05-19T07:45:28.910Z,46.80
2023-05-19T07:46:29.031Z,46.28
2023-05-19T07:47:29.440Z,45.98
2023-05-19T07:48:28.902Z,46.48
2023-05-19T07:49:28.818Z,46.26
2023-05-19T07:50:28.827Z,46.06
2023-05-19T07:51:28.817Z,46.48
2023-05-19T07:52:28.789Z,47.69
2023-05-19T07:53:28.796Z,46.36
2023-05-19T07:54:28.825Z,45.83
2023-05-19T07:55:28.754Z,45.45
2023-05-19T07:56:28.905Z,45.45
2023-05-19T07:57:28.745Z,45.15
2023-05-19T07:58:29.286Z,45.57
2023-05-19T07:59:29.787Z,46.30
2023-05-19T08:00:29.293Z,46.93
2023-05-19T08:01:28.847Z,46.85
2023-05-19T08:02:28.782Z,47.66
2023-05-19T08:03:28.876Z,48.18
2023-05-19T08:04:28.917Z,48.50
2023-05-19T08:05:28.639Z,48.81
2023-05-19T08:06:28.683Z,48.21
2023-05-19T08:07:28.680Z,48.30
2023-05-19T08:08:28.774Z,47.80
2023-05-19T08:09:28.728Z,47.70
2023-05-19T08:10:28.621Z,47.60
2023-05-19T08:11:28.687Z,47.88
2023-05-19T08:12:28.581Z,47.88
2023-05-19T08:13:28.551Z,48.38
2023-05-19T08:14:28.585Z,48.08
2023-05-19T08:15:28.610Z,47.55
2023-05-19T08:16:28.681Z,47.53
2023-05-19T08:17:28.545Z,46.50
2023-05-19T08:18:28.557Z,46.18
2023-05-19T08:19:28.733Z,46.38
2023-05-19T08:20:28.465Z,44.95
2023-05-19T08:21:28.463Z,44.04
2023-05-19T08:22:28.535Z,44.35
2023-05-19T08:23:28.414Z,45.50
2023-05-19T08:24:28.494Z,45.39
2023-05-19T08:25:28.470Z,46.33
2023-05-19T08:26:28.393Z,46.83
2023-05-19T08:27:28.409Z,46.60
2023-05-19T08:28:28.716Z,45.92
2023-05-19T08:29:28.396Z,46.00
2023-05-19T08:30:28.423Z,46.20
2023-05-19T08:31:28.452Z,46.20
2023-05-19T08:32:28.352Z,45.78
2023-05-19T08:33:28.396Z,45.37
2023-05-19T08:34:28.354Z,45.45
2023-05-19T08:35:28.362Z,45.35
2023-05-19T08:36:28.319Z,44.65
2023-05-19T08:37:28.282Z,44.55
2023-05-19T08:38:28.277Z,44.04
2023-05-19T08:39:28.276Z,44.37
2023-05-19T08:40:28.240Z,44.89
2023-05-19T08:41:28.239Z,45.37
2023-05-19T08:42:28.219Z,45.19
2023-05-19T08:43:28.247Z,44.51
2023-05-19T08:44:28.222Z,44.83
2023-05-19T08:45:28.224Z,45.24
2023-05-19T08:46:28.361Z,45.34
2023-05-19T08:47:28.918Z,45.34
2023-05-19T08:48:28.205Z,46.12
2023-05-19T08:49:28.199Z,45.32
2023-05-19T08:50:28.156Z,44.79
2023-05-19T08:51:28.205Z,44.59
2023-05-19T08:52:28.132Z,44.89
2023-05-19T08:53:34.007Z,45.17
2023-05-19T08:54:28.118Z,45.27
2023-05-19T08:55:28.245Z,44.45
2023-05-19T08:56:28.157Z,43.74
2023-05-19T08:57:28.078Z,42.92
2023-05-19T08:58:28.843Z,42.32
2023-05-19T08:59:28.084Z,41.82
2023-05-19T09:00:28.124Z,42.94
2023-05-19T09:01:28.055Z,43.24
2023-05-19T09:02:28.012Z,43.96
2023-05-19T09:03:28.111Z,43.24
2023-05-19T09:04:29.986Z,42.84
2023-05-19T09:05:28.125Z,42.66
2023-05-19T09:06:28.020Z,43.08
2023-05-19T09:07:27.917Z,43.26
2023-05-19T09:08:27.913Z,43.06
2023-05-19T09:09:27.911Z,42.96
2023-05-19T09:10:29.104Z,42.74
2023-05-19T09:11:27.909Z,43.46
2023-05-19T09:12:28.378Z,42.46
2023-05-19T09:13:27.906Z,42.46
2023-05-19T09:14:28.836Z,42.18
2023-05-19T09:15:27.949Z,42.38
2023-05-19T09:16:30.056Z,43.08
2023-05-19T09:17:27.875Z,42.68
2023-05-19T09:18:28.720Z,42.78
2023-05-19T09:19:29.595Z,42.98
2023-05-19T09:20:28.698Z,42.86
2023-05-19T09:21:27.809Z,42.64
2023-05-19T09:22:27.754Z,42.76
2023-05-19T09:23:27.771Z,42.25
2023-05-19T09:24:27.726Z,42.38
2023-05-19T09:25:28.516Z,43.18
2023-05-19T09:26:27.741Z,43.26
2023-05-19T09:27:27.693Z,43.46
2023-05-19T09:28:28.349Z,43.84
2023-05-19T09:29:27.678Z,43.04
2023-05-19T09:30:27.684Z,42.92
2023-05-19T09:31:27.705Z,43.24
2023-05-19T09:32:27.862Z,42.61
2023-05-19T09:33:27.694Z,42.19
2023-05-19T09:34:27.629Z,41.19
2023-05-19T09:35:27.596Z,41.51
2023-05-19T09:36:27.603Z,41.39
2023-05-19T09:37:27.571Z,41.59
2023-05-19T09:38:27.601Z,42.13
2023-05-19T09:39:27.553Z,42.46
2023-05-19T09:40:27.568Z,42.55
2023-05-19T09:41:27.551Z,43.08
2023-05-19T09:42:27.622Z,43.26
2023-05-19T09:43:27.530Z,42.74
2023-05-19T09:44:27.513Z,42.33
2023-05-19T09:45:27.496Z,43.06
2023-05-19T09:46:27.544Z,42.44
2023-05-19T09:47:27.474Z,42.21
2023-05-19T09:48:27.454Z,41.39
2023-05-19T09:49:27.456Z,39.78
2023-05-19T09:50:27.435Z,39.88
2023-05-19T09:51:27.423Z,40.19
2023-05-19T09:52:27.428Z,40.11
2023-05-19T09:53:27.414Z,41.23
2023-05-19T09:54:27.403Z,41.55
2023-05-19T09:55:27.390Z,40.64
2023-05-19T09:56:27.396Z,40.73
2023-05-19T09:57:27.366Z,40.42
2023-05-19T09:58:27.351Z,40.73
2023-05-19T09:59:29.033Z,40.73
2023-05-19T10:00:27.355Z,40.73
2023-05-19T10:01:27.363Z,39.90
2023-05-19T10:02:27.349Z,39.88
2023-05-19T10:03:27.337Z,39.66
2023-05-19T10:04:27.310Z,39.97
2023-05-19T10:05:27.315Z,40.19
2023-05-19T10:06:27.264Z,39.88
2023-05-19T10:07:27.246Z,40.19
2023-05-19T10:08:27.273Z,40.59
2023-05-19T10:09:27.234Z,41.11
2023-05-19T10:10:27.207Z,41.21
2023-05-19T10:11:27.200Z,41.29
2023-05-19T10:12:27.187Z,40.69
2023-05-19T10:13:27.181Z,40.79
2023-05-19T10:14:27.220Z,40.06
2023-05-19T10:15:27.151Z,40.19
2023-05-19T10:16:27.769Z,40.00
2023-05-19T10:17:27.167Z,40.34
2023-05-19T10:18:27.183Z,41.35
2023-05-19T10:19:27.288Z,41.67
2023-05-19T10:20:27.211Z,41.87
2023-05-19T10:21:27.134Z,41.87
2023-05-19T10:22:27.071Z,42.07
2023-05-19T10:23:27.209Z,42.47
2023-05-19T10:24:27.063Z,42.68
2023-05-19T10:25:27.064Z,42.38
2023-05-19T10:26:27.120Z,42.58
2023-05-19T10:27:27.014Z,42.78
2023-05-19T10:28:27.013Z,42.88
2023-05-19T10:29:27.051Z,42.78
2023-05-19T10:30:26.981Z,42.68
2023-05-19T10:31:27.006Z,42.38
2023-05-19T10:32:27.127Z,42.58
2023-05-19T10:33:26.985Z,42.68
2023-05-19T10:34:26.973Z,41.97
2023-05-19T10:35:26.948Z,42.58
2023-05-19T10:36:26.933Z,42.38
2023-05-19T10:37:26.955Z,42.05
2023-05-19T10:38:26.899Z,42.55
2023-05-19T10:39:26.886Z,42.68
2023-05-19T10:40:26.908Z,43.26
2023-05-19T10:41:26.905Z,42.55
2023-05-19T10:42:26.913Z,41.75
2023-05-19T10:43:26.837Z,40.83
2023-05-19T10:44:26.827Z,40.64
2023-05-19T10:45:26.822Z,40.46
2023-05-19T10:46:26.868Z,40.97
2023-05-19T10:47:26.892Z,40.97
2023-05-19T10:48:26.817Z,41.17
2023-05-19T10:49:26.811Z,40.95
2023-05-19T10:50:26.759Z,39.56
2023-05-19T10:51:26.770Z,39.65
2023-05-19T10:52:26.759Z,40.06
2023-05-19T10:53:26.733Z,40.58
2023-05-19T10:54:26.712Z,41.06
2023-05-19T10:55:26.709Z,41.27
2023-05-19T10:56:26.728Z,41.47
2023-05-19T10:57:26.684Z,41.06
2023-05-19T10:58:26.728Z,41.37
2023-05-19T10:59:27.869Z,41.37
2023-05-19T11:00:26.650Z,41.67
2023-05-19T11:01:26.688Z,42.47
2023-05-19T11:02:26.751Z,41.95
2023-05-19T11:03:26.637Z,41.35
2023-05-19T11:04:26.623Z,41.03
2023-05-19T11:05:26.604Z,40.59
2023-05-19T11:06:26.644Z,40.08
2023-05-19T11:07:26.570Z,39.78
2023-05-19T11:08:26.592Z,39.48
2023-05-19T11:09:37.821Z,39.16
2023-05-19T11:10:26.549Z,39.56
2023-05-19T11:11:26.577Z,39.47
2023-05-19T11:12:26.536Z,38.74
2023-05-19T11:13:28.452Z,39.34
2023-05-19T11:14:26.575Z,38.84
2023-05-19T11:15:26.534Z,37.84
2023-05-19T11:16:26.693Z,38.06
2023-05-19T11:17:26.507Z,38.98
2023-05-19T11:18:26.476Z,38.18
2023-05-19T11:19:26.532Z,39.00
2023-05-19T11:20:26.443Z,38.49
2023-05-19T11:21:26.536Z,39.12
2023-05-19T11:22:26.446Z,40.04
2023-05-19T11:23:26.466Z,40.55
2023-05-19T11:24:26.383Z,40.44
2023-05-19T11:25:26.380Z,40.55
2023-05-19T11:26:26.403Z,40.84
2023-05-19T11:27:26.361Z,41.25
2023-05-19T11:28:26.421Z,40.83
2023-05-19T11:29:26.331Z,40.02
2023-05-19T11:30:26.360Z,39.80
2023-05-19T11:31:26.361Z,39.60
2023-05-19T11:32:26.414Z,39.28
2023-05-19T11:33:26.299Z,39.06
2023-05-19T11:34:26.271Z,38.86
2023-05-19T11:35:26.263Z,38.24
2023-05-19T11:36:26.253Z,37.82
2023-05-19T11:37:26.238Z,37.60
2023-05-19T11:38:26.242Z,37.50
2023-05-19T11:39:26.274Z,37.18
2023-05-19T11:40:26.194Z,36.88
2023-05-19T11:41:26.209Z,36.76
2023-05-19T11:42:26.204Z,36.46
2023-05-19T11:43:26.246Z,36.58
2023-05-19T11:44:26.205Z,36.88
2023-05-19T11:45:26.259Z,37.00
2023-05-19T11:46:26.198Z,37.50
2023-05-19T11:47:26.167Z,37.48
2023-05-19T11:48:26.225Z,36.96
2023-05-19T11:49:26.107Z,36.87
2023-05-19T11:50:26.100Z,36.15
2023-05-19T11:51:26.074Z,36.26
2023-05-19T11:52:26.093Z,36.90
2023-05-19T11:53:26.068Z,37.42
2023-05-19T11:54:26.067Z,37.34
2023-05-19T11:55:26.035Z,37.94
2023-05-19T11:56:26.019Z,37.76
2023-05-19T11:57:26.020Z,38.26
2023-05-19T11:58:26.012Z,38.58
2023-05-19T11:59:26.024Z,38.90
2023-05-19T12:00:25.972Z,39.52
2023-05-19T12:01:25.982Z,39.92
2023-05-19T12:02:26.106Z,40.12
2023-05-19T12:03:26.063Z,40.02
2023-05-19T12:04:25.945Z,40.42
2023-05-19T12:05:26.148Z,40.00
2023-05-19T12:06:26.026Z,39.78
2023-05-19T12:07:25.917Z,38.68
2023-05-19T12:08:25.911Z,38.46
2023-05-19T12:09:25.894Z,36.60
2023-05-19T12:10:25.870Z,36.20
2023-05-19T12:11:25.868Z,35.98
2023-05-19T12:12:25.854Z,36.46
2023-05-19T12:13:25.831Z,36.16
2023-05-19T12:14:25.815Z,36.05
2023-05-19T12:15:25.889Z,35.53
2023-05-19T12:16:25.870Z,35.41
2023-05-19T12:17:25.838Z,35.10
2023-05-19T12:18:25.812Z,35.39
2023-05-19T12:19:26.194Z,34.06
2023-05-19T12:20:25.762Z,34.18
2023-05-19T12:21:25.753Z,34.51
2023-05-19T12:22:25.722Z,34.31
2023-05-19T12:23:25.721Z,35.13
2023-05-19T12:24:25.706Z,35.33
2023-05-19T12:25:25.730Z,35.55
2023-05-19T12:26:25.705Z,36.07
2023-05-19T12:27:25.708Z,37.30
2023-05-19T12:28:25.662Z,37.30
2023-05-19T12:29:25.649Z,37.40
2023-05-19T12:30:25.648Z,38.00
2023-05-19T12:31:25.701Z,37.82
2023-05-19T12:32:25.783Z,38.26
2023-05-19T12:33:25.642Z,39.18
2023-05-19T12:34:25.660Z,39.90
2023-05-19T12:35:25.597Z,39.50
2023-05-19T12:36:25.611Z,39.70
2023-05-19T12:37:25.566Z,39.70
2023-05-19T12:38:25.555Z,39.28
2023-05-19T12:39:25.555Z,38.62
2023-05-19T12:40:25.553Z,36.98
2023-05-19T12:41:25.541Z,35.86
2023-05-19T12:42:25.517Z,35.56
2023-05-19T12:43:25.556Z,36.58
2023-05-19T12:44:25.506Z,37.12
2023-05-19T12:45:25.564Z,38.56
2023-05-19T12:46:26.039Z,39.58
2023-05-19T12:47:25.505Z,39.78
2023-05-19T12:48:25.433Z,40.30
2023-05-19T12:49:25.451Z,40.81
2023-05-19T12:50:25.422Z,40.81
2023-05-19T12:51:25.421Z,40.91
2023-05-19T12:52:25.394Z,41.21
2023-05-19T12:53:25.436Z,40.89
2023-05-19T12:54:25.418Z,40.69
2023-05-19T12:55:25.442Z,39.23
2023-05-19T12:56:25.356Z,37.98
2023-05-19T12:57:25.396Z,38.53
2023-05-19T12:58:25.337Z,39.04
2023-05-19T12:59:37.204Z,39.06
2023-05-19T13:00:25.381Z,39.66
2023-05-19T13:01:25.499Z,39.58
2023-05-19T13:02:25.307Z,39.88
2023-05-19T13:03:25.453Z,39.34
2023-05-19T13:04:25.281Z,38.90
2023-05-19T13:05:25.264Z,36.75
2023-05-19T13:06:25.251Z,35.98
2023-05-19T13:07:25.229Z,35.01
2023-05-19T13:08:25.248Z,32.67
2023-05-19T13:09:25.246Z,32.45
2023-05-19T13:10:25.202Z,31.94
2023-05-19T13:11:25.212Z,31.23
2023-05-19T13:12:25.764Z,31.84
2023-05-19T13:13:25.163Z,31.74
2023-05-19T13:14:25.282Z,31.05
2023-05-19T13:15:25.145Z,31.99
2023-05-19T13:16:25.162Z,33.95
2023-05-19T13:17:25.159Z,35.10
2023-05-19T13:18:25.186Z,35.93
2023-05-19T13:19:26.162Z,37.16
2023-05-19T13:20:27.653Z,37.80
2023-05-19T13:21:25.086Z,38.31
2023-05-19T13:22:25.074Z,38.40
2023-05-19T13:23:25.092Z,38.31
2023-05-19T13:24:25.054Z,38.10
2023-05-19T13:25:25.042Z,38.20
2023-05-19T13:26:25.070Z,37.92
2023-05-19T13:27:25.023Z,37.94
2023-05-19T13:28:25.041Z,37.96
2023-05-19T13:29:25.001Z,38.38
2023-05-19T13:30:25.000Z,38.98
2023-05-19T13:31:25.024Z,38.58
2023-05-19T13:32:24.965Z,38.88
2023-05-19T13:33:25.240Z,38.78
2023-05-19T13:34:24.950Z,38.88
2023-05-19T13:35:24.932Z,38.96
2023-05-19T13:36:24.968Z,38.54
2023-05-19T13:37:24.984Z,37.68
2023-05-19T13:38:24.908Z,37.16
2023-05-19T13:39:24.921Z,37.18
2023-05-19T13:40:24.907Z,36.87
2023-05-19T13:41:24.870Z,36.98
2023-05-19T13:42:24.864Z,37.60
2023-05-19T13:43:24.840Z,37.92
2023-05-19T13:44:24.844Z,38.22
2023-05-19T13:45:24.863Z,38.32
2023-05-19T13:46:36.736Z,39.03
2023-05-19T13:47:24.917Z,37.82
2023-05-19T13:48:24.852Z,38.22
2023-05-19T13:49:24.845Z,37.40
2023-05-19T13:50:24.775Z,36.38
2023-05-19T13:51:24.987Z,36.48
2023-05-19T13:52:25.257Z,36.48
2023-05-19T13:53:24.732Z,37.10
2023-05-19T13:54:24.768Z,38.24
2023-05-19T13:55:24.713Z,39.06
2023-05-19T13:56:24.681Z,39.48
2023-05-19T13:57:24.728Z,39.69
2023-05-19T13:58:24.681Z,39.56
2023-05-19T13:59:24.683Z,39.76
2023-05-19T14:00:24.652Z,39.76
2023-05-19T14:01:24.706Z,39.56
2023-05-19T14:02:24.796Z,39.47
2023-05-19T14:03:24.784Z,39.69
2023-05-19T14:04:24.761Z,39.78
2023-05-19T14:05:24.618Z,40.48
2023-05-19T14:06:24.610Z,40.69
2023-05-19T14:07:24.568Z,40.39
2023-05-19T14:08:24.569Z,40.06
2023-05-19T14:09:24.587Z,39.42
2023-05-19T14:10:24.583Z,38.49
2023-05-19T14:11:24.553Z,38.35
2023-05-19T14:12:30.965Z,37.96
2023-05-19T14:14:24.526Z,38.59
2023-05-19T14:15:24.492Z,38.79
2023-05-19T14:16:24.506Z,38.79
2023-05-19T14:17:24.506Z,38.39
2023-05-19T14:18:24.453Z,38.70
2023-05-19T14:19:24.501Z,38.00
2023-05-19T14:20:24.424Z,39.12
2023-05-19T14:21:24.458Z,39.45
2023-05-19T14:22:24.392Z,39.64
2023-05-19T14:23:24.404Z,39.62
2023-05-19T14:24:24.456Z,38.89
2023-05-19T14:25:24.377Z,38.81
2023-05-19T14:26:24.346Z,39.11
2023-05-19T14:27:24.451Z,39.81
2023-05-19T14:28:24.333Z,39.71
2023-05-19T14:29:24.349Z,39.49
2023-05-19T14:30:24.304Z,38.40
2023-05-19T14:31:24.340Z,38.10
2023-05-19T14:32:24.327Z,37.60
2023-05-19T14:33:24.288Z,37.27
2023-05-19T14:34:24.265Z,37.46
2023-05-19T14:35:24.308Z,38.39
2023-05-19T14:36:24.245Z,37.25
2023-05-19T14:37:24.240Z,35.69
2023-05-19T14:38:24.216Z,35.99
2023-05-19T14:39:24.230Z,36.40
2023-05-19T14:40:24.213Z,35.98
2023-05-19T14:41:24.263Z,34.23
2023-05-19T14:42:24.207Z,33.58
2023-05-19T14:43:24.180Z,33.08
2023-05-19T14:44:24.149Z,34.01
2023-05-19T14:45:24.162Z,34.83
2023-05-19T14:46:24.133Z,34.94
2023-05-19T14:47:26.193Z,35.76
2023-05-19T14:48:24.119Z,35.98
2023-05-19T14:49:24.100Z,36.69
2023-05-19T14:50:24.117Z,37.10
2023-05-19T14:51:24.124Z,36.81
2023-05-19T14:52:24.072Z,37.41
2023-05-19T14:53:24.055Z,37.83
2023-05-19T14:54:24.042Z,37.85
2023-05-19T14:55:24.053Z,38.17
2023-05-19T14:56:24.032Z,38.90
2023-05-19T14:57:24.021Z,39.32
2023-05-19T14:58:28.894Z,39.45
2023-05-19T14:59:24.008Z,39.54
2023-05-19T15:00:23.990Z,39.66
2023-05-19T15:01:24.070Z,39.76
2023-05-19T15:02:24.011Z,39.76
2023-05-19T15:03:23.951Z,39.66
2023-05-19T15:04:23.974Z,38.82
2023-05-19T15:05:23.945Z,38.60
2023-05-19T15:06:23.907Z,37.87
2023-05-19T15:07:23.914Z,36.31
2023-05-19T15:08:23.951Z,34.84
2023-05-19T15:09:23.924Z,34.30
2023-05-19T15:10:23.881Z,33.98
2023-05-19T15:11:23.908Z,33.07
2023-05-19T15:12:23.866Z,32.15
2023-05-19T15:13:23.845Z,32.47
2023-05-19T15:14:23.849Z,34.11
2023-05-19T15:15:23.825Z,34.26
2023-05-19T15:16:23.860Z,35.51
2023-05-19T15:17:23.883Z,36.87
2023-05-19T15:18:23.789Z,38.31
2023-05-19T15:19:23.852Z,39.03
2023-05-19T15:20:23.770Z,39.56
2023-05-19T15:21:23.793Z,40.39
2023-05-19T15:22:23.750Z,40.99
2023-05-19T15:23:23.746Z,41.07
2023-05-19T15:24:23.710Z,40.77
2023-05-19T15:25:23.751Z,40.73
2023-05-19T15:26:23.789Z,37.93
2023-05-19T15:27:23.724Z,36.06
2023-05-19T15:28:23.670Z,35.21
2023-05-19T15:29:23.660Z,33.97
2023-05-19T15:30:23.673Z,32.62
2023-05-19T15:31:23.661Z,32.01
2023-05-19T15:32:23.625Z,31.53
2023-05-19T15:33:23.632Z,32.45
2023-05-19T15:34:23.603Z,32.14
2023-05-19T15:35:23.694Z,32.26
2023-05-19T15:36:23.601Z,32.67
2023-05-19T15:37:23.577Z,33.58
2023-05-19T15:38:23.560Z,33.81
2023-05-19T15:39:23.561Z,34.55
2023-05-19T15:40:23.645Z,34.86
2023-05-19T15:41:23.550Z,35.28
2023-05-19T15:42:23.521Z,36.10
2023-05-19T15:43:23.518Z,36.21
2023-05-19T15:44:23.519Z,37.03
2023-05-19T15:45:23.528Z,37.25
2023-05-19T15:46:23.597Z,37.66
2023-05-19T15:47:23.465Z,38.40
2023-05-19T15:48:24.959Z,39.54
2023-05-19T15:49:23.441Z,40.17
2023-05-19T15:50:23.630Z,40.39
2023-05-19T15:51:23.518Z,40.39
2023-05-19T15:52:23.510Z,40.79
2023-05-19T15:53:23.395Z,41.11
2023-05-19T15:54:23.391Z,41.09
2023-05-19T15:55:23.389Z,40.79
2023-05-19T15:56:23.399Z,41.19
2023-05-19T15:57:23.354Z,41.09
2023-05-19T15:58:23.347Z,41.09
2023-05-19T15:59:25.238Z,41.59
2023-05-19T16:00:23.342Z,41.59
2023-05-19T16:01:23.377Z,41.39
2023-05-19T16:02:23.314Z,41.21
2023-05-19T16:03:23.435Z,41.11
2023-05-19T16:04:23.315Z,41.41
2023-05-19T16:05:23.362Z,41.11
2023-05-19T16:06:23.253Z,41.01
2023-05-19T16:07:23.250Z,41.21
2023-05-19T16:08:23.242Z,41.21
2023-05-19T16:09:23.345Z,40.67
2023-05-19T16:10:23.232Z,39.62
2023-05-19T16:11:23.203Z,39.01
2023-05-19T16:12:23.221Z,39.11
2023-05-19T16:13:23.180Z,39.01
2023-05-19T16:14:23.873Z,39.01
2023-05-19T16:15:23.181Z,38.47
2023-05-19T16:16:23.187Z,37.96
2023-05-19T16:17:23.132Z,37.77
2023-05-19T16:18:23.131Z,38.17
2023-05-19T16:19:23.235Z,37.77
2023-05-19T16:20:23.125Z,38.37
2023-05-19T16:21:23.099Z,38.99
2023-05-19T16:22:23.568Z,39.40
2023-05-19T16:23:23.064Z,39.62
2023-05-19T16:24:23.076Z,39.45
2023-05-19T16:25:23.060Z,40.05
2023-05-19T16:26:23.068Z,39.75
2023-05-19T16:27:23.028Z,39.64
2023-05-19T16:28:24.606Z,39.84
2023-05-19T16:29:23.019Z,40.47
2023-05-19T16:30:23.062Z,39.66
2023-05-19T16:31:23.009Z,39.98
2023-05-19T16:32:23.019Z,39.88
2023-05-19T16:33:22.961Z,40.61
2023-05-19T16:34:22.957Z,41.03
2023-05-19T16:35:23.043Z,41.03
2023-05-19T16:36:22.988Z,41.33
2023-05-19T16:37:22.942Z,41.25
2023-05-19T16:38:22.905Z,41.05
2023-05-19T16:39:22.914Z,41.17
2023-05-19T16:40:22.882Z,41.27
2023-05-19T16:41:22.924Z,41.27
2023-05-19T16:42:22.882Z,41.67
2023-05-19T16:43:22.848Z,41.37
2023-05-19T16:44:22.902Z,41.57
2023-05-19T16:45:22.836Z,41.77
2023-05-19T16:46:22.961Z,41.87
2023-05-19T16:47:22.794Z,41.67
2023-05-19T16:48:22.812Z,41.67
2023-05-19T16:49:22.809Z,41.57
2023-05-19T16:50:22.856Z,41.89
2023-05-19T16:51:22.823Z,42.40
2023-05-19T16:52:22.757Z,42.32
2023-05-19T16:53:22.741Z,42.70
2023-05-19T16:54:22.730Z,42.82